createdAt,value
2018-12-19T00:00:33.987Z,100757.88
2018-12-19T00:03:37.284Z,100765.37
2018-12-19T00:06:40.436Z,100757.05
2018-12-19T00:09:43.603Z,100742.09
2018-12-19T00:12:46.562Z,100743.04
2018-12-19T00:15:49.799Z,100734.56
2018-12-19T00:18:52.802Z,100732.74
2018-12-19T00:21:55.900Z,100728.86
2018-12-19T00:24:58.995Z,100733.32
2018-12-19T00:28:02.183Z,100730.67
2018-12-19T00:31:05.159Z,100717.52
2018-12-19T00:34:08.247Z,100722.24
2018-12-19T00:37:13.388Z,100716.12
2018-12-19T00:40:18.633Z,100702.02
2018-12-19T00:43:21.646Z,100697.67
2018-12-19T00:46:24.815Z,100691.44
2018-12-19T00:49:27.794Z,100693.22
2018-12-19T00:52:31.003Z,100679.16
2018-12-19T00:55:35.100Z,100684.45
2018-12-19T00:58:39.442Z,100690.28
2018-12-19T01:01:47.710Z,100687.18
2018-12-19T01:04:50.967Z,100683.67
2018-12-19T01:07:57.502Z,100679.70
2018-12-19T01:11:00.499Z,100696.12
2018-12-19T01:14:03.589Z,100696.98
2018-12-19T01:17:06.680Z,100688.19
2018-12-19T01:20:09.774Z,100682.52
2018-12-19T01:23:12.860Z,100683.84
2018-12-19T01:26:15.960Z,100676.27
2018-12-19T01:29:21.193Z,100675.91
2018-12-19T01:32:24.501Z,100668.05
2018-12-19T01:35:27.571Z,100666.27
2018-12-19T01:38:30.775Z,100674.20
2018-12-19T01:41:33.882Z,100673.84
2018-12-19T01:44:41.782Z,100673.84
2018-12-19T01:50:57.879Z,100676.85
2018-12-19T01:54:01.278Z,100669.86
2018-12-19T01:57:04.566Z,100676.85
2018-12-19T02:00:08.129Z,100674.66
2018-12-19T02:03:12.402Z,100672.88
2018-12-19T02:06:15.575Z,100678.55
2018-12-19T02:09:19.258Z,100680.82
2018-12-19T02:12:22.439Z,100682.61
2018-12-19T02:15:25.813Z,100684.87
2018-12-19T02:18:30.117Z,100679.88
2018-12-19T02:21:33.269Z,100671.56
2018-12-19T02:24:36.591Z,100652.26
2018-12-19T02:27:39.774Z,100642.62
2018-12-19T02:30:43.141Z,100639.03
2018-12-19T02:33:46.300Z,100630.27
2018-12-19T02:36:50.459Z,100626.75
2018-12-19T02:39:54.138Z,100617.13
2018-12-19T02:46:07.395Z,100609.18
2018-12-19T02:49:10.577Z,100597.73
2018-12-19T02:52:13.813Z,100599.92
2018-12-19T02:55:17.361Z,100585.37
2018-12-19T02:58:20.579Z,100586.41
2018-12-19T03:01:24.169Z,100588.93
2018-12-19T03:04:27.564Z,100589.70
2018-12-19T03:07:30.707Z,100595.95
2018-12-19T03:10:34.353Z,100590.66
2018-12-19T03:13:37.751Z,100598.59
2018-12-19T03:16:41.163Z,100606.13
2018-12-19T03:19:44.687Z,100599.92
2018-12-19T03:22:48.325Z,100594.22
2018-12-19T03:25:51.589Z,100595.86
2018-12-19T03:28:54.694Z,100598.59
2018-12-19T03:31:59.971Z,100595.00
2018-12-19T03:35:03.276Z,100606.53
2018-12-19T03:38:06.687Z,100595.17
2018-12-19T03:41:11.217Z,100585.55
2018-12-19T03:44:14.606Z,100589.88
2018-12-19T03:47:17.836Z,100588.19
2018-12-19T03:50:21.100Z,100587.23
2018-12-19T03:53:24.279Z,100597.82
2018-12-19T03:56:27.547Z,100602.73
2018-12-19T03:59:31.856Z,100606.71
2018-12-19T04:02:35.230Z,100597.45
2018-12-19T04:05:38.501Z,100594.43
2018-12-19T04:08:41.849Z,100605.39
2018-12-19T04:11:45.160Z,100597.08
2018-12-19T04:14:48.292Z,100591.78
2018-12-19T04:17:51.540Z,100593.11
2018-12-19T04:20:54.839Z,100589.88
2018-12-19T04:23:57.998Z,100578.93
2018-12-19T04:27:01.067Z,100586.28
2018-12-19T04:30:04.436Z,100571.94
2018-12-19T04:33:07.478Z,100577.15
2018-12-19T04:36:10.535Z,100574.01
2018-12-19T04:39:13.635Z,100575.83
2018-12-19T04:42:16.784Z,100569.20
2018-12-19T04:45:20.970Z,100566.07
2018-12-19T04:48:25.062Z,100559.83
2018-12-19T04:51:28.078Z,100556.44
2018-12-19T04:54:31.159Z,100550.78
2018-12-19T04:57:34.182Z,100540.11
2018-12-19T05:00:37.430Z,100549.45
2018-12-19T05:03:40.511Z,100552.09
2018-12-19T05:06:43.504Z,100548.13
2018-12-19T05:09:47.619Z,100537.92
2018-12-19T05:12:50.823Z,100544.16
2018-12-19T05:15:53.815Z,100540.20
2018-12-19T05:18:58.019Z,100537.05
2018-12-19T05:22:01.019Z,100536.41
2018-12-19T05:25:04.439Z,100532.80
2018-12-19T05:28:07.598Z,100524.87
2018-12-19T05:31:10.870Z,100518.25
2018-12-19T05:34:14.031Z,100520.44
2018-12-19T05:37:17.098Z,100514.66
2018-12-19T05:43:33.878Z,100508.53
2018-12-19T05:46:37.102Z,100511.18
2018-12-19T05:49:40.461Z,100519.58
2018-12-19T05:52:43.793Z,100516.94
2018-12-19T05:55:46.851Z,100515.15
2018-12-19T05:58:50.139Z,100518.63
2018-12-19T06:01:53.328Z,100517.30
2018-12-19T06:04:56.375Z,100515.61
2018-12-19T06:07:59.487Z,100519.95
2018-12-19T06:11:03.669Z,100523.91
2018-12-19T06:14:06.756Z,100526.19
2018-12-19T06:17:09.755Z,100521.27
2018-12-19T06:20:12.870Z,100515.98
2018-12-19T06:23:16.167Z,100510.31
2018-12-19T06:26:19.139Z,100514.29
2018-12-19T06:29:23.335Z,100515.23
2018-12-19T06:32:26.799Z,100515.23
2018-12-19T06:35:29.942Z,100505.98
2018-12-19T06:38:33.119Z,100509.45
2018-12-19T06:41:36.096Z,100518.80
2018-12-19T06:44:39.108Z,100516.94
2018-12-19T06:47:42.265Z,100512.19
2018-12-19T06:50:45.559Z,100494.08
2018-12-19T06:53:48.872Z,100498.56
2018-12-19T06:56:51.958Z,100489.70
2018-12-19T06:59:55.035Z,100486.20
2018-12-19T07:02:58.999Z,100490.56
2018-12-19T07:06:02.325Z,100497.64
2018-12-19T07:09:07.637Z,100485.33
2018-12-19T07:12:11.203Z,100487.61
2018-12-19T07:15:14.383Z,100493.27
2018-12-19T07:18:18.212Z,100492.41
2018-12-19T07:21:22.606Z,100503.84
2018-12-19T07:24:27.798Z,100520.12
2018-12-19T07:27:31.252Z,100513.11
2018-12-19T07:30:35.451Z,100529.94
2018-12-19T07:33:38.449Z,100526.34
2018-12-19T07:36:41.827Z,100518.80
2018-12-19T07:39:44.872Z,100515.75
2018-12-19T07:42:48.388Z,100516.16
2018-12-19T07:45:51.806Z,100516.16
2018-12-19T07:48:55.529Z,100521.86
2018-12-19T07:51:58.948Z,100522.22
2018-12-19T07:55:02.621Z,100529.39
2018-12-19T07:58:06.383Z,100542.61
2018-12-19T08:01:10.099Z,100540.89
2018-12-19T08:04:13.850Z,100545.66
2018-12-19T08:07:17.790Z,100540.38
2018-12-19T08:10:23.502Z,100528.47
2018-12-19T08:13:29.030Z,100529.79
2018-12-19T08:16:32.734Z,100537.33
2018-12-19T08:19:37.306Z,100540.89
2018-12-19T08:22:42.300Z,100540.42
2018-12-19T08:25:46.668Z,100528.13
2018-12-19T08:28:50.783Z,100525.11
2018-12-19T08:31:53.991Z,100533.13
2018-12-19T08:34:57.656Z,100533.53
2018-12-19T08:38:01.367Z,100524.36
2018-12-19T08:41:04.589Z,100521.63
2018-12-19T08:44:10.870Z,100521.45
2018-12-19T08:47:14.069Z,100522.22
2018-12-19T08:50:17.278Z,100526.56
2018-12-19T08:53:20.336Z,100531.67
2018-12-19T08:56:23.399Z,100529.41
2018-12-19T08:59:26.466Z,100533.78
2018-12-19T09:02:29.679Z,100538.89
2018-12-19T09:05:33.739Z,100536.62
2018-12-19T09:08:36.888Z,100536.07
2018-12-19T09:11:41.942Z,100546.07
2018-12-19T09:14:46.036Z,100554.97
2018-12-19T09:17:49.250Z,100565.65
2018-12-19T09:20:52.228Z,100563.00
2018-12-19T09:23:56.367Z,100555.06
2018-12-19T09:26:59.466Z,100562.83
2018-12-19T09:30:02.639Z,100555.92
2018-12-19T09:33:05.627Z,100555.44
2018-12-19T09:36:08.787Z,100561.12
2018-12-19T09:39:11.916Z,100561.96
2018-12-19T09:42:15.011Z,100569.07
2018-12-19T09:45:17.983Z,100561.88
2018-12-19T09:48:21.106Z,100562.91
2018-12-19T09:51:24.263Z,100557.62
2018-12-19T09:54:27.286Z,100552.80
2018-12-19T09:57:31.532Z,100539.09
2018-12-19T10:00:36.666Z,100536.63
2018-12-19T10:03:39.887Z,100530.02
2018-12-19T10:06:42.995Z,100539.27
2018-12-19T10:12:59.022Z,100530.56
2018-12-19T10:16:02.320Z,100536.63
2018-12-19T10:19:05.312Z,100536.45
2018-12-19T10:22:08.503Z,100544.75
2018-12-19T10:25:14.279Z,100544.30
2018-12-19T10:28:22.451Z,100540.78
2018-12-19T10:31:26.647Z,100540.97
2018-12-19T10:34:29.781Z,100541.38
2018-12-19T10:37:33.875Z,100533.44
2018-12-19T10:40:37.184Z,100537.00
2018-12-19T10:43:41.721Z,100535.59
2018-12-19T10:46:45.811Z,100541.38
2018-12-19T10:49:50.031Z,100541.38
2018-12-19T10:52:53.144Z,100539.65
2018-12-19T10:55:56.122Z,100526.41
2018-12-19T10:58:59.286Z,100518.11
2018-12-19T11:02:03.421Z,100523.03
2018-12-19T11:05:06.424Z,100508.47
2018-12-19T11:08:10.047Z,100508.06
2018-12-19T11:11:13.618Z,100500.34
2018-12-19T11:14:16.820Z,100485.79
2018-12-19T11:17:21.879Z,100487.48
2018-12-19T11:20:25.054Z,100492.41
2018-12-19T11:23:28.052Z,100476.52
2018-12-19T11:26:31.481Z,100476.30
2018-12-19T11:29:34.627Z,100475.66
2018-12-19T11:32:37.811Z,100479.17
2018-12-19T11:35:40.963Z,100478.49
2018-12-19T11:38:44.315Z,100476.30
2018-12-19T11:41:47.558Z,100467.99
2018-12-19T11:44:50.706Z,100469.05
2018-12-19T11:47:54.823Z,100468.67
2018-12-19T11:50:57.906Z,100477.08
2018-12-19T11:54:01.106Z,100488.53
2018-12-19T11:57:04.696Z,100477.17
2018-12-19T12:00:08.995Z,100469.13
2018-12-19T12:03:12.149Z,100454.86
2018-12-19T12:06:16.334Z,100451.93
2018-12-19T12:09:19.363Z,100455.44
2018-12-19T12:12:22.411Z,100456.77
2018-12-19T12:15:25.506Z,100447.00
2018-12-19T12:18:28.706Z,100448.73
2018-12-19T12:21:32.727Z,100454.12
2018-12-19T12:24:35.835Z,100443.63
2018-12-19T12:27:38.887Z,100439.66
2018-12-19T12:30:42.159Z,100435.59
2018-12-19T12:33:47.407Z,100443.98
2018-12-19T12:36:52.530Z,100436.91
2018-12-19T12:40:10.147Z,100430.75
2018-12-19T12:43:21.346Z,100428.11
2018-12-19T12:46:30.018Z,100425.64
2018-12-19T12:49:41.972Z,100419.61
2018-12-19T12:52:45.866Z,100424.81
2018-12-19T12:55:56.475Z,100422.80
2018-12-19T12:59:04.809Z,100419.11
2018-12-19T13:02:08.081Z,100417.13
2018-12-19T13:05:12.264Z,100426.58
2018-12-19T13:08:15.398Z,100420.23
2018-12-19T13:11:18.390Z,100419.17
2018-12-19T13:14:22.486Z,100419.75
2018-12-19T13:17:25.492Z,100414.27
2018-12-19T13:20:29.675Z,100419.37
2018-12-19T13:23:33.720Z,100423.61
2018-12-19T13:26:37.022Z,100427.86
2018-12-19T13:29:40.110Z,100420.58
2018-12-19T13:32:43.214Z,100425.22
2018-12-19T13:35:46.304Z,100430.88
2018-12-19T13:38:50.715Z,100430.69
2018-12-19T13:41:53.760Z,100429.53
2018-12-19T13:44:57.910Z,100433.31
2018-12-19T13:48:01.010Z,100421.20
2018-12-19T13:51:04.068Z,100424.22
2018-12-19T13:54:08.217Z,100428.00
2018-12-19T13:57:12.356Z,100423.56
2018-12-19T14:00:18.496Z,100430.55
2018-12-19T14:03:22.721Z,100437.24
2018-12-19T14:06:25.912Z,100431.11
2018-12-19T14:09:30.029Z,100435.36
2018-12-19T14:12:34.046Z,100434.39
2018-12-19T14:15:38.276Z,100440.09
2018-12-19T14:18:41.476Z,100442.16
2018-12-19T14:21:44.544Z,100440.99
2018-12-19T14:24:47.740Z,100437.42
2018-12-19T14:27:50.743Z,100437.78
2018-12-19T14:30:55.968Z,100442.39
2018-12-19T14:33:59.276Z,100440.86
2018-12-19T14:37:02.477Z,100443.52
2018-12-19T14:40:05.719Z,100444.74
2018-12-19T14:43:08.959Z,100449.38
2018-12-19T14:46:13.059Z,100447.46
2018-12-19T14:49:17.080Z,100445.47
2018-12-19T14:52:20.270Z,100430.98
2018-12-19T14:55:23.370Z,100430.52
2018-12-19T14:58:26.471Z,100424.27
2018-12-19T15:01:29.444Z,100432.22
2018-12-19T15:04:32.631Z,100421.97
2018-12-19T15:07:36.751Z,100422.73
2018-12-19T15:10:43.520Z,100420.45
2018-12-19T15:13:46.603Z,100420.91
2018-12-19T15:16:49.623Z,100416.73
2018-12-19T15:19:52.807Z,100417.95
2018-12-19T15:22:56.815Z,100417.49
2018-12-19T15:26:01.027Z,100413.02
2018-12-19T15:29:04.081Z,100406.19
2018-12-19T15:32:08.380Z,100402.21
2018-12-19T15:35:18.911Z,100399.09
2018-12-19T15:38:22.238Z,100403.94
2018-12-19T15:41:28.363Z,100401.64
2018-12-19T15:44:32.695Z,100401.44
2018-12-19T15:47:37.768Z,100403.52
2018-12-19T15:50:43.588Z,100399.55
2018-12-19T15:53:46.749Z,100394.91
2018-12-19T15:56:50.898Z,100387.91
2018-12-19T15:59:54.251Z,100397.45
2018-12-19T16:02:57.295Z,100402.66
2018-12-19T16:06:00.383Z,100402.05
2018-12-19T16:09:03.507Z,100395.06
2018-12-19T16:12:06.468Z,100386.14
2018-12-19T16:15:09.467Z,100397.05
2018-12-19T16:18:12.627Z,100398.94
2018-12-19T16:21:15.619Z,100390.02
2018-12-19T16:24:18.770Z,100385.83
2018-12-19T16:27:21.908Z,100384.03
2018-12-19T16:33:34.116Z,100369.91
2018-12-19T16:36:41.740Z,100372.10
2018-12-19T16:39:44.936Z,100367.62
2018-12-19T16:42:49.031Z,100367.42
2018-12-19T16:45:52.071Z,100365.63
2018-12-19T16:48:56.230Z,100368.28
2018-12-19T16:51:59.263Z,100367.70
2018-12-19T16:55:02.680Z,100365.05
2018-12-19T16:58:05.830Z,100363.98
2018-12-19T17:01:10.045Z,100366.64
2018-12-19T17:04:13.243Z,100372.87
2018-12-19T17:07:16.356Z,100363.48
2018-12-19T17:10:19.426Z,100373.27
2018-12-19T17:13:22.609Z,100370.88
2018-12-19T17:16:25.708Z,100370.41
2018-12-19T17:19:28.863Z,100368.69
2018-12-19T17:22:31.992Z,100371.34
2018-12-19T17:25:35.173Z,100367.66
2018-12-19T17:28:39.199Z,100365.83
2018-12-19T17:31:42.320Z,100358.63
2018-12-19T17:34:45.698Z,100347.05
2018-12-19T17:37:48.832Z,100339.09
2018-12-19T17:40:51.955Z,100350.06
2018-12-19T17:43:55.224Z,100349.70
2018-12-19T17:46:58.366Z,100344.75
2018-12-19T17:50:01.568Z,100345.15
2018-12-19T17:53:05.688Z,100341.63
2018-12-19T17:56:08.670Z,100347.80
2018-12-19T17:59:11.851Z,100342.70
2018-12-19T18:02:16.019Z,100341.84
2018-12-19T18:05:20.015Z,100342.70
2018-12-19T18:08:23.084Z,100343.00
2018-12-19T18:11:26.284Z,100336.91
2018-12-19T18:14:29.268Z,100340.89
2018-12-19T18:17:32.343Z,100339.32
2018-12-19T18:20:35.655Z,100335.73
2018-12-19T18:23:38.731Z,100329.92
2018-12-19T18:26:45.015Z,100325.48
2018-12-19T18:29:47.992Z,100328.88
2018-12-19T18:32:51.196Z,100329.24
2018-12-19T18:35:54.375Z,100331.80
2018-12-19T18:38:57.465Z,100340.98
2018-12-19T18:42:00.566Z,100347.97
2018-12-19T18:45:04.352Z,100350.98
2018-12-19T18:48:07.574Z,100347.40
2018-12-19T18:51:10.750Z,100351.73
2018-12-19T18:54:13.759Z,100353.92
2018-12-19T18:57:16.843Z,100338.83
2018-12-19T19:00:26.494Z,100347.55
2018-12-19T19:03:29.676Z,100345.61
2018-12-19T19:06:33.024Z,100336.32
2018-12-19T19:09:36.176Z,100344.67
2018-12-19T19:12:39.176Z,100345.03
2018-12-19T19:15:42.143Z,100345.18
2018-12-19T19:18:45.322Z,100348.19
2018-12-19T19:21:48.333Z,100345.97
2018-12-19T19:24:51.416Z,100344.71
2018-12-19T19:27:54.660Z,100350.31
2018-12-19T19:30:58.720Z,100353.72
2018-12-19T19:34:02.842Z,100359.02
2018-12-19T19:37:05.848Z,100357.59
2018-12-19T19:40:10.399Z,100358.06
2018-12-19T19:43:14.483Z,100356.41
2018-12-19T19:46:17.764Z,100358.20
2018-12-19T19:49:20.866Z,100356.88
2018-12-19T19:52:23.955Z,100354.75
2018-12-19T19:55:27.042Z,100356.44
2018-12-19T19:58:31.164Z,100365.73
2018-12-19T20:01:35.279Z,100356.80
2018-12-19T20:04:38.466Z,100358.13
2018-12-19T20:07:42.483Z,100359.13
2018-12-19T20:10:45.574Z,100363.22
2018-12-19T20:13:48.530Z,100367.56
2018-12-19T20:16:56.931Z,100359.13
2018-12-19T20:20:02.065Z,100359.02
2018-12-19T20:23:05.118Z,100364.33
2018-12-19T20:26:08.199Z,100368.78
2018-12-19T20:29:12.311Z,100372.66
2018-12-19T20:32:15.417Z,100373.63
2018-12-19T20:35:18.492Z,100371.69
2018-12-19T20:38:22.635Z,100375.67
2018-12-19T20:41:25.707Z,100376.53
2018-12-19T20:44:28.815Z,100370.75
2018-12-19T20:47:31.901Z,100369.03
2018-12-19T20:50:35.070Z,100365.23
2018-12-19T20:53:38.167Z,100372.33
2018-12-19T20:56:41.168Z,100360.84
2018-12-19T20:59:44.253Z,100359.16
2018-12-19T21:02:47.359Z,100358.59
2018-12-19T21:05:50.432Z,100358.59
2018-12-19T21:08:53.531Z,100353.98
2018-12-19T21:11:56.642Z,100356.53
2018-12-19T21:14:59.718Z,100351.69
2018-12-19T21:18:11.025Z,100344.00
2018-12-19T21:21:14.756Z,100346.55
2018-12-19T21:24:17.908Z,100340.12
2018-12-19T21:27:22.001Z,100337.83
2018-12-19T21:30:24.989Z,100338.70
2018-12-19T21:33:28.230Z,100338.70
2018-12-19T21:36:32.335Z,100341.46
2018-12-19T21:39:35.308Z,100332.73
2018-12-19T21:42:38.893Z,100328.15
2018-12-19T21:45:43.039Z,100335.84
2018-12-19T21:48:46.017Z,100335.26
2018-12-19T21:51:49.136Z,100323.88
2018-12-19T21:54:52.281Z,100322.81
2018-12-19T21:57:55.269Z,100321.48
2018-12-19T22:00:58.497Z,100321.09
2018-12-19T22:04:01.828Z,100316.75
2018-12-19T22:07:05.876Z,100325.69
2018-12-19T22:10:09.226Z,100325.69
2018-12-19T22:13:13.457Z,100324.35
2018-12-19T22:16:22.128Z,100334.23
2018-12-19T22:19:25.505Z,100348.72
2018-12-19T22:22:28.768Z,100342.19
2018-12-19T22:25:32.971Z,100346.53
2018-12-19T22:28:36.298Z,100354.14
2018-12-19T22:31:39.610Z,100353.56
2018-12-19T22:34:43.125Z,100348.26
2018-12-19T22:37:47.539Z,100344.27
2018-12-19T22:40:51.037Z,100345.31
2018-12-19T22:43:56.603Z,100332.55
2018-12-19T22:46:59.811Z,100340.15
2018-12-19T22:50:02.916Z,100347.61
2018-12-19T22:53:06.283Z,100344.13
2018-12-19T22:56:09.737Z,100343.16
2018-12-19T22:59:12.975Z,100329.53
2018-12-19T23:02:23.645Z,100322.39
2018-12-19T23:05:32.438Z,100324.33
2018-12-19T23:08:36.671Z,100326.48
2018-12-19T23:11:41.051Z,100333.73
2018-12-19T23:14:45.459Z,100321.78
2018-12-19T23:17:48.879Z,100320.45
2018-12-19T23:20:53.214Z,100324.80
2018-12-19T23:23:56.455Z,100330.46
2018-12-19T23:26:59.944Z,100332.00
2018-12-19T23:30:03.336Z,100332.76
2018-12-19T23:33:06.507Z,100333.73
2018-12-19T23:36:09.743Z,100332.98
2018-12-19T23:39:12.849Z,100327.55
2018-12-19T23:42:16.444Z,100326.70
2018-12-19T23:45:19.553Z,100322.25
2018-12-19T23:48:22.738Z,100320.56
2018-12-19T23:51:27.117Z,100317.80
2018-12-19T23:54:32.467Z,100325.02
2018-12-19T23:57:35.694Z,100317.05
